Rejestracja

Wszystkie dane podawane są w czasie UTC za wyjątkiem miejsc gdzie jest jednoznacznie podane, że jest inaczej. Dane podawane w serwisie mają charakter informacyjny!!!
Informacje w sprawie dostępu do serwisu pod numerem tel. +48 261-828-138

Aktualna Pogoda
 
Pogoda w Polsce
17°C Szczecin 17°C Suwałki 18°C Warszawa 17°C Poznan
19°C Opole 18°C Kraków 19°C Rzeszów
Więcej miast w Polsce

Pogoda w Europie
17°C Berlin 17°C Paryz 19°C Bruksela 13°C Oslo
18°C Praga 25°C Zagrzeb
Więcej miast w Europie

Metary wojskowe test
METAR EPBC 300900Z 29008KT 9999 BKN022 20/10 Q1022=
METAR EPCE 300900Z 29012KT 9999 SCT022 BKN054 17/12 Q1021 RMK 169 073 5/3=
METAR EPDA 300900Z 29012KT 9999 BKN022 17/12 Q1022 RMK 170 072 5/5=
METAR EPDE 300900Z 29012KT 9999 SCT040 20/11 Q1021 RMK 202 054 4/4=
METAR EPIR 300830Z 31014KT 9999 SCT033 BKN200 19/09 Q1023 RMK 186 055 5/4=
METAR EPKS 300830Z 25008KT 9999 SCT026 SCT200 17/10 Q1024 RMK 173 061 4/3=
METAR EPLK 300830Z 31010KT 9999 SCT034 BKN200 18/10 Q1023 RMK 182 057 5/4=
METAR EPLY 300830Z 30010KT 9999 SCT029 18/11 Q1023 RMK 183 063 4/4=
METAR EPMB 300900Z 30010KT 9999 FEW033 SCT100 19/11 Q1020 RMK 193 057 3/2=
METAR EPMI 300900Z 31010KT 9999 SCT033 17/12 Q1024 RMK 168 072 4/4=
METAR EPMM 300900Z 29010KT 9999 SCT030 BKN070 18/11 Q1021 RMK 181 062 5/4=
METAR EPNA 300900Z 30014KT 9999 BKN025 17/09 Q1023 RMK 165 063 6/6=
METAR EPOK 300900Z 29012KT 9999 SCT029 18/14 Q1020 RMK 176 079 3/3=
METAR EPPR 300900Z 27010KT 9999 BKN050 19/11 Q1020 RMK 187 061 6/6=
METAR EPPW 300900Z 27012KT 9999 SCT040 17/09 Q1024 RMK 172 058 4/4=
METAR EPSN 300900Z 30010KT 9999 SCT030 18/09 Q1023 RMK 177 056 3/3=
METAR EPTM 300900Z 32010KT 9999 SCT039 19/11 Q1023 RMK 192 057 4/4=


 
Informacje ogólne
Pogoda
Warszawa
Temperatura: 17.9°C
Wiatr: 5.0 m/s
Ciśnienie: 1021.6 hPa
Zjawiska: Brak
Temp. max: 17.9 °C
Temp. min: 14.3 °C


Dane astronomiczne
Warszawa:
Dzien: 13:41 h
Noc: 10:19 h


Using HW VSP powered by HW group.

Prawa autorskie©2007 SSH SZ RP. Wszelkie prawa zastrzeżone.